sensor_id;sensor_type;location;lat;lon;timestamp;pressure;altitude;pressure_sealevel;temperature;humidity
46682;BME280;34101;53.430;-2.224;2023-04-01T00:01:12;99611.87;;;11.03;65.70
46682;BME280;34101;53.430;-2.224;2023-04-01T00:03:40;99614.41;;;11.00;65.60
46682;BME280;34101;53.430;-2.224;2023-04-01T00:06:09;99618.45;;;10.98;65.78
46682;BME280;34101;53.430;-2.224;2023-04-01T00:08:38;99623.42;;;11.00;65.80
46682;BME280;34101;53.430;-2.224;2023-04-01T00:11:07;99623.69;;;11.02;65.75
46682;BME280;34101;53.430;-2.224;2023-04-01T00:13:35;99622.79;;;11.02;66.12
46682;BME280;34101;53.430;-2.224;2023-04-01T00:16:03;99621.95;;;11.04;65.88
46682;BME280;34101;53.430;-2.224;2023-04-01T00:18:31;99615.52;;;11.00;65.64
46682;BME280;34101;53.430;-2.224;2023-04-01T00:20:59;99620.58;;;11.00;65.65
46682;BME280;34101;53.430;-2.224;2023-04-01T00:23:27;99623.44;;;10.94;65.82
46682;BME280;34101;53.430;-2.224;2023-04-01T00:25:55;99628.17;;;10.95;65.91
46682;BME280;34101;53.430;-2.224;2023-04-01T00:28:24;99630.78;;;10.98;65.62
46682;BME280;34101;53.430;-2.224;2023-04-01T00:30:51;99633.50;;;10.95;65.27
46682;BME280;34101;53.430;-2.224;2023-04-01T00:33:18;99637.70;;;10.86;65.45
46682;BME280;34101;53.430;-2.224;2023-04-01T00:35:46;99635.91;;;10.87;65.39
46682;BME280;34101;53.430;-2.224;2023-04-01T00:38:14;99636.41;;;10.84;65.45
46682;BME280;34101;53.430;-2.224;2023-04-01T00:40:43;99638.19;;;10.74;65.71
46682;BME280;34101;53.430;-2.224;2023-04-01T00:43:13;99640.24;;;10.73;65.97
46682;BME280;34101;53.430;-2.224;2023-04-01T00:45:42;99644.43;;;10.68;66.22
46682;BME280;34101;53.430;-2.224;2023-04-01T00:48:14;99652.84;;;10.68;66.32
46682;BME280;34101;53.430;-2.224;2023-04-01T00:50:45;99655.28;;;10.69;66.13
46682;BME280;34101;53.430;-2.224;2023-04-01T00:53:16;99656.58;;;10.65;66.14
46682;BME280;34101;53.430;-2.224;2023-04-01T00:55:50;99660.63;;;10.63;66.24
46682;BME280;34101;53.430;-2.224;2023-04-01T00:58:21;99662.96;;;10.61;66.40
46682;BME280;34101;53.430;-2.224;2023-04-01T01:00:51;99665.32;;;10.61;66.26
46682;BME280;34101;53.430;-2.224;2023-04-01T01:03:19;99665.83;;;10.61;66.16
46682;BME280;34101;53.430;-2.224;2023-04-01T01:06:00;99667.61;;;10.63;65.86
46682;BME280;34101;53.430;-2.224;2023-04-01T01:08:39;99668.29;;;10.65;66.13
46682;BME280;34101;53.430;-2.224;2023-04-01T01:11:18;99664.86;;;10.69;65.97
46682;BME280;34101;53.430;-2.224;2023-04-01T01:13:55;99666.17;;;10.68;65.96
46682;BME280;34101;53.430;-2.224;2023-04-01T01:16:27;99661.98;;;10.66;66.20
46682;BME280;34101;53.430;-2.224;2023-04-01T01:19:05;99666.73;;;10.65;66.18
46682;BME280;34101;53.430;-2.224;2023-04-01T01:21:55;99665.50;;;10.67;66.34
46682;BME280;34101;53.430;-2.224;2023-04-01T01:24:47;99671.05;;;10.61;66.16
46682;BME280;34101;53.430;-2.224;2023-04-01T01:27:17;99668.25;;;10.64;66.40
46682;BME280;34101;53.430;-2.224;2023-04-01T01:30:00;99668.53;;;10.65;66.33
46682;BME280;34101;53.430;-2.224;2023-04-01T01:33:45;99668.77;;;10.61;66.40
46682;BME280;34101;53.430;-2.224;2023-04-01T01:36:17;99671.80;;;10.58;66.27
46682;BME280;34101;53.430;-2.224;2023-04-01T01:38:48;99676.76;;;10.56;66.32
46682;BME280;34101;53.430;-2.224;2023-04-01T01:41:20;99675.08;;;10.56;66.10
46682;BME280;34101;53.430;-2.224;2023-04-01T01:43:48;99675.82;;;10.55;66.07
46682;BME280;34101;53.430;-2.224;2023-04-01T01:46:19;99679.91;;;10.52;66.14
46682;BME280;34101;53.430;-2.224;2023-04-01T01:48:48;99677.78;;;10.52;66.14
46682;BME280;34101;53.430;-2.224;2023-04-01T01:51:18;99678.54;;;10.54;65.95
46682;BME280;34101;53.430;-2.224;2023-04-01T01:53:48;99690.16;;;10.53;66.15
46682;BME280;34101;53.430;-2.224;2023-04-01T01:56:17;99693.40;;;10.58;66.18
46682;BME280;34101;53.430;-2.224;2023-04-01T01:58:49;99701.19;;;10.58;66.01
46682;BME280;34101;53.430;-2.224;2023-04-01T02:01:21;99702.54;;;10.61;65.91
46682;BME280;34101;53.430;-2.224;2023-04-01T02:03:51;99711.16;;;10.62;65.27
46682;BME280;34101;53.430;-2.224;2023-04-01T02:06:22;99713.29;;;10.63;65.41
46682;BME280;34101;53.430;-2.224;2023-04-01T02:08:52;99718.14;;;10.66;65.37
46682;BME280;34101;53.430;-2.224;2023-04-01T02:11:27;99720.12;;;10.65;65.33
46682;BME280;34101;53.430;-2.224;2023-04-01T02:14:00;99721.29;;;10.65;65.43
46682;BME280;34101;53.430;-2.224;2023-04-01T02:16:34;99725.90;;;10.69;65.32
46682;BME280;34101;53.430;-2.224;2023-04-01T02:19:05;99729.33;;;10.68;65.04
46682;BME280;34101;53.430;-2.224;2023-04-01T02:21:35;99729.95;;;10.66;64.98
46682;BME280;34101;53.430;-2.224;2023-04-01T02:24:07;99729.92;;;10.65;65.14
46682;BME280;34101;53.430;-2.224;2023-04-01T02:26:35;99732.70;;;10.64;65.16
46682;BME280;34101;53.430;-2.224;2023-04-01T02:29:03;99734.10;;;10.67;65.04
46682;BME280;34101;53.430;-2.224;2023-04-01T02:31:33;99741.23;;;10.55;64.76
46682;BME280;34101;53.430;-2.224;2023-04-01T02:34:02;99742.31;;;10.48;64.69
46682;BME280;34101;53.430;-2.224;2023-04-01T02:36:29;99744.38;;;10.47;64.56
46682;BME280;34101;53.430;-2.224;2023-04-01T02:38:58;99750.75;;;10.44;64.85
46682;BME280;34101;53.430;-2.224;2023-04-01T02:41:25;99751.98;;;10.45;64.85
46682;BME280;34101;53.430;-2.224;2023-04-01T02:43:52;99756.41;;;10.46;65.09
46682;BME280;34101;53.430;-2.224;2023-04-01T02:46:20;99757.15;;;10.48;64.99
46682;BME280;34101;53.430;-2.224;2023-04-01T02:48:47;99761.29;;;10.48;65.01
46682;BME280;34101;53.430;-2.224;2023-04-01T02:51:14;99763.40;;;10.47;65.11
46682;BME280;34101;53.430;-2.224;2023-04-01T02:53:42;99764.07;;;10.51;65.14
46682;BME280;34101;53.430;-2.224;2023-04-01T02:56:09;99759.84;;;10.57;65.08
46682;BME280;34101;53.430;-2.224;2023-04-01T02:58:37;99757.54;;;10.53;65.07
46682;BME280;34101;53.430;-2.224;2023-04-01T03:01:05;99756.44;;;10.49;64.94
46682;BME280;34101;53.430;-2.224;2023-04-01T03:03:32;99760.23;;;10.47;65.08
46682;BME280;34101;53.430;-2.224;2023-04-01T03:06:05;99765.14;;;10.41;65.13
46682;BME280;34101;53.430;-2.224;2023-04-01T03:08:32;99771.76;;;10.35;65.55
46682;BME280;34101;53.430;-2.224;2023-04-01T03:11:00;99780.32;;;10.33;65.37
46682;BME280;34101;53.430;-2.224;2023-04-01T03:13:27;99783.69;;;10.31;65.52
46682;BME280;34101;53.430;-2.224;2023-04-01T03:15:55;99786.87;;;10.29;65.26
46682;BME280;34101;53.430;-2.224;2023-04-01T03:18:22;99789.81;;;10.29;65.36
46682;BME280;34101;53.430;-2.224;2023-04-01T03:20:50;99791.88;;;10.31;65.22
46682;BME280;34101;53.430;-2.224;2023-04-01T03:23:17;99792.08;;;10.25;64.77
46682;BME280;34101;53.430;-2.224;2023-04-01T03:25:44;99793.29;;;10.26;64.74
46682;BME280;34101;53.430;-2.224;2023-04-01T03:28:17;99800.20;;;10.28;65.01
46682;BME280;34101;53.430;-2.224;2023-04-01T03:30:44;99802.30;;;10.30;64.90
46682;BME280;34101;53.430;-2.224;2023-04-01T03:33:12;99805.10;;;10.28;64.56
46682;BME280;34101;53.430;-2.224;2023-04-01T03:35:39;99806.13;;;10.24;64.62
46682;BME280;34101;53.430;-2.224;2023-04-01T03:38:07;99809.92;;;10.27;64.46
46682;BME280;34101;53.430;-2.224;2023-04-01T03:40:34;99811.93;;;10.27;64.50
46682;BME280;34101;53.430;-2.224;2023-04-01T03:43:01;99807.72;;;10.23;64.35
46682;BME280;34101;53.430;-2.224;2023-04-01T03:45:29;99805.74;;;10.18;64.37
46682;BME280;34101;53.430;-2.224;2023-04-01T03:47:56;99810.52;;;10.15;64.79
46682;BME280;34101;53.430;-2.224;2023-04-01T03:50:24;99814.88;;;10.15;64.93
46682;BME280;34101;53.430;-2.224;2023-04-01T03:52:51;99816.21;;;10.15;64.94
46682;BME280;34101;53.430;-2.224;2023-04-01T03:55:19;99820.77;;;10.20;64.96
46682;BME280;34101;53.430;-2.224;2023-04-01T03:57:46;99825.88;;;10.17;64.82
46682;BME280;34101;53.430;-2.224;2023-04-01T04:00:14;99831.84;;;10.19;64.92
46682;BME280;34101;53.430;-2.224;2023-04-01T04:02:41;99839.06;;;10.22;64.71
46682;BME280;34101;53.430;-2.224;2023-04-01T04:05:08;99842.60;;;10.14;64.66
46682;BME280;34101;53.430;-2.224;2023-04-01T04:07:36;99846.77;;;10.12;64.72
46682;BME280;34101;53.430;-2.224;2023-04-01T04:10:04;99851.61;;;10.11;64.78
46682;BME280;34101;53.430;-2.224;2023-04-01T04:12:32;99850.79;;;10.09;64.74
46682;BME280;34101;53.430;-2.224;2023-04-01T04:14:59;99849.81;;;10.06;64.64
46682;BME280;34101;53.430;-2.224;2023-04-01T04:17:26;99846.94;;;10.05;64.85
46682;BME280;34101;53.430;-2.224;2023-04-01T04:19:54;99846.76;;;10.06;64.85
46682;BME280;34101;53.430;-2.224;2023-04-01T04:22:21;99849.30;;;10.08;64.77
46682;BME280;34101;53.430;-2.224;2023-04-01T04:24:49;99847.60;;;10.08;64.70
46682;BME280;34101;53.430;-2.224;2023-04-01T04:27:16;99849.55;;;10.04;64.71
46682;BME280;34101;53.430;-2.224;2023-04-01T04:29:43;99852.45;;;10.03;64.51
46682;BME280;34101;53.430;-2.224;2023-04-01T04:32:11;99856.05;;;10.02;64.75
46682;BME280;34101;53.430;-2.224;2023-04-01T04:34:39;99857.62;;;9.98;64.64
46682;BME280;34101;53.430;-2.224;2023-04-01T04:37:06;99858.97;;;10.00;64.70
46682;BME280;34101;53.430;-2.224;2023-04-01T04:39:33;99861.09;;;10.00;64.48
46682;BME280;34101;53.430;-2.224;2023-04-01T04:42:01;99862.21;;;9.97;64.57
46682;BME280;34101;53.430;-2.224;2023-04-01T04:44:28;99863.56;;;9.95;64.70
46682;BME280;34101;53.430;-2.224;2023-04-01T04:46:55;99871.13;;;9.95;64.64
46682;BME280;34101;53.430;-2.224;2023-04-01T04:49:23;99872.25;;;9.98;64.79
46682;BME280;34101;53.430;-2.224;2023-04-01T04:51:50;99869.59;;;10.01;64.79
46682;BME280;34101;53.430;-2.224;2023-04-01T04:54:18;99870.75;;;10.03;64.72
46682;BME280;34101;53.430;-2.224;2023-04-01T04:56:45;99878.82;;;9.94;64.62
46682;BME280;34101;53.430;-2.224;2023-04-01T04:59:13;99891.84;;;9.93;64.94
46682;BME280;34101;53.430;-2.224;2023-04-01T05:01:40;99893.91;;;9.85;64.70
46682;BME280;34101;53.430;-2.224;2023-04-01T05:04:07;99896.65;;;9.77;64.94
46682;BME280;34101;53.430;-2.224;2023-04-01T05:06:35;99895.79;;;9.73;64.68
46682;BME280;34101;53.430;-2.224;2023-04-01T05:09:02;99901.59;;;9.67;65.07
46682;BME280;34101;53.430;-2.224;2023-04-01T05:11:30;99912.51;;;9.68;64.97
46682;BME280;34101;53.430;-2.224;2023-04-01T05:13:57;99912.33;;;9.66;65.05
46682;BME280;34101;53.430;-2.224;2023-04-01T05:16:24;99919.41;;;9.67;65.12
46682;BME280;34101;53.430;-2.224;2023-04-01T05:18:52;99925.84;;;9.68;65.20
46682;BME280;34101;53.430;-2.224;2023-04-01T05:21:19;99932.08;;;9.69;64.97
46682;BME280;34101;53.430;-2.224;2023-04-01T05:23:47;99934.54;;;9.67;65.10
46682;BME280;34101;53.430;-2.224;2023-04-01T05:26:15;99942.19;;;9.66;65.07
46682;BME280;34101;53.430;-2.224;2023-04-01T05:28:47;99947.66;;;9.67;64.94
46682;BME280;34101;53.430;-2.224;2023-04-01T05:31:14;99949.05;;;9.70;64.67
46682;BME280;34101;53.430;-2.224;2023-04-01T05:33:47;99948.99;;;9.72;64.94
46682;BME280;34101;53.430;-2.224;2023-04-01T05:36:16;99947.55;;;9.74;64.72
46682;BME280;34101;53.430;-2.224;2023-04-01T05:38:44;99947.86;;;9.73;64.51
46682;BME280;34101;53.430;-2.224;2023-04-01T05:41:11;99952.50;;;9.76;64.62
46682;BME280;34101;53.430;-2.224;2023-04-01T05:43:39;99954.56;;;9.82;64.64
46682;BME280;34101;53.430;-2.224;2023-04-01T05:46:07;99959.93;;;9.83;64.54
46682;BME280;34101;53.430;-2.224;2023-04-01T05:48:34;99968.36;;;9.88;64.44
46682;BME280;34101;53.430;-2.224;2023-04-01T05:51:01;99969.38;;;9.87;64.38
46682;BME280;34101;53.430;-2.224;2023-04-01T05:53:29;99970.03;;;9.86;64.43
46682;BME280;34101;53.430;-2.224;2023-04-01T05:55:56;99972.07;;;9.84;64.37
46682;BME280;34101;53.430;-2.224;2023-04-01T05:58:24;99976.46;;;9.83;64.38
46682;BME280;34101;53.430;-2.224;2023-04-01T06:00:51;99978.52;;;9.82;64.56
46682;BME280;34101;53.430;-2.224;2023-04-01T06:03:19;99977.91;;;9.86;64.29
46682;BME280;34101;53.430;-2.224;2023-04-01T06:05:46;99979.36;;;9.85;64.23
46682;BME280;34101;53.430;-2.224;2023-04-01T06:08:16;99982.47;;;9.83;63.84
46682;BME280;34101;53.430;-2.224;2023-04-01T06:10:57;99986.41;;;9.83;63.79
46682;BME280;34101;53.430;-2.224;2023-04-01T06:13:39;99991.17;;;9.84;63.78
46682;BME280;34101;53.430;-2.224;2023-04-01T06:16:20;99992.79;;;9.82;63.71
46682;BME280;34101;53.430;-2.224;2023-04-01T06:19:00;99998.90;;;9.80;63.62
46682;BME280;34101;53.430;-2.224;2023-04-01T06:21:42;100003.86;;;9.74;63.74
46682;BME280;34101;53.430;-2.224;2023-04-01T06:24:27;100002.53;;;9.75;63.95
46682;BME280;34101;53.430;-2.224;2023-04-01T06:27:06;100002.45;;;9.74;64.03
46682;BME280;34101;53.430;-2.224;2023-04-01T06:29:56;100004.69;;;9.75;64.31
46682;BME280;34101;53.430;-2.224;2023-04-01T06:32:40;100011.95;;;9.80;64.07
46682;BME280;34101;53.430;-2.224;2023-04-01T06:35:39;100016.30;;;9.87;63.82
46682;BME280;34101;53.430;-2.224;2023-04-01T06:38:20;100020.36;;;9.92;63.40
46682;BME280;34101;53.430;-2.224;2023-04-01T06:41:51;100019.61;;;10.02;62.89
46682;BME280;34101;53.430;-2.224;2023-04-01T06:44:28;100031.40;;;10.06;63.02
46682;BME280;34101;53.430;-2.224;2023-04-01T06:46:59;100034.37;;;10.18;62.97
46682;BME280;34101;53.430;-2.224;2023-04-01T06:49:37;100037.55;;;10.27;62.68
46682;BME280;34101;53.430;-2.224;2023-04-01T06:52:15;100036.04;;;10.32;62.25
46682;BME280;34101;53.430;-2.224;2023-04-01T06:54:49;100044.93;;;10.31;61.79
46682;BME280;34101;53.430;-2.224;2023-04-01T06:57:23;100052.16;;;10.32;62.11
46682;BME280;34101;53.430;-2.224;2023-04-01T06:59:55;100057.14;;;10.34;61.86
46682;BME280;34101;53.430;-2.224;2023-04-01T07:02:29;100058.28;;;10.34;61.65
46682;BME280;34101;53.430;-2.224;2023-04-01T07:05:02;100063.50;;;10.35;61.81
46682;BME280;34101;53.430;-2.224;2023-04-01T07:07:35;100068.71;;;10.30;62.25
46682;BME280;34101;53.430;-2.224;2023-04-01T07:10:11;100074.76;;;10.32;62.27
46682;BME280;34101;53.430;-2.224;2023-04-01T07:12:46;100078.99;;;10.40;62.70
46682;BME280;34101;53.430;-2.224;2023-04-01T07:15:19;100077.86;;;10.48;62.28
46682;BME280;34101;53.430;-2.224;2023-04-01T07:17:51;100079.80;;;10.43;63.05
46682;BME280;34101;53.430;-2.224;2023-04-01T07:20:23;100083.71;;;10.31;63.68
46682;BME280;34101;53.430;-2.224;2023-04-01T07:22:54;100087.48;;;10.26;64.14
46682;BME280;34101;53.430;-2.224;2023-04-01T07:25:25;100094.22;;;10.20;64.83
46682;BME280;34101;53.430;-2.224;2023-04-01T07:28:00;100095.99;;;10.17;64.64
46682;BME280;34101;53.430;-2.224;2023-04-01T07:30:33;100095.91;;;10.21;64.74
46682;BME280;34101;53.430;-2.224;2023-04-01T07:33:12;100095.51;;;10.28;64.78
46682;BME280;34101;53.430;-2.224;2023-04-01T07:35:48;100099.46;;;10.35;64.32
46682;BME280;34101;53.430;-2.224;2023-04-01T07:38:28;100105.24;;;10.33;64.39
46682;BME280;34101;53.430;-2.224;2023-04-01T07:41:07;100105.31;;;10.15;63.83
46682;BME280;34101;53.430;-2.224;2023-04-01T07:43:47;100109.52;;;10.12;63.81
46682;BME280;34101;53.430;-2.224;2023-04-01T07:46:29;100110.24;;;10.06;63.82
46682;BME280;34101;53.430;-2.224;2023-04-01T07:49:03;100117.18;;;10.11;63.94
46682;BME280;34101;53.430;-2.224;2023-04-01T07:51:37;100121.18;;;10.15;63.78
46682;BME280;34101;53.430;-2.224;2023-04-01T07:54:11;100124.33;;;10.18;63.82
46682;BME280;34101;53.430;-2.224;2023-04-01T07:56:43;100129.12;;;10.21;63.57
46682;BME280;34101;53.430;-2.224;2023-04-01T07:59:16;100127.84;;;10.31;63.06
46682;BME280;34101;53.430;-2.224;2023-04-01T08:01:51;100132.30;;;10.47;62.71
46682;BME280;34101;53.430;-2.224;2023-04-01T08:04:40;100134.22;;;10.51;61.70
46682;BME280;34101;53.430;-2.224;2023-04-01T08:07:17;100135.58;;;10.65;61.41
46682;BME280;34101;53.430;-2.224;2023-04-01T08:09:51;100139.28;;;10.84;60.86
46682;BME280;34101;53.430;-2.224;2023-04-01T08:12:31;100143.29;;;11.00;60.20
46682;BME280;34101;53.430;-2.224;2023-04-01T08:15:12;100148.21;;;11.31;60.08
46682;BME280;34101;53.430;-2.224;2023-04-01T08:17:53;100155.93;;;11.55;59.03
46682;BME280;34101;53.430;-2.224;2023-04-01T08:20:28;100161.92;;;11.71;58.20
46682;BME280;34101;53.430;-2.224;2023-04-01T08:23:04;100167.50;;;11.98;57.54
46682;BME280;34101;53.430;-2.224;2023-04-01T08:25:34;100175.16;;;12.10;56.19
46682;BME280;34101;53.430;-2.224;2023-04-01T08:28:11;100178.18;;;12.28;56.11
46682;BME280;34101;53.430;-2.224;2023-04-01T08:30:44;100179.76;;;12.38;55.25
46682;BME280;34101;53.430;-2.224;2023-04-01T08:33:17;100183.61;;;12.51;54.62
46682;BME280;34101;53.430;-2.224;2023-04-01T08:35:50;100188.16;;;12.55;53.92
46682;BME280;34101;53.430;-2.224;2023-04-01T08:38:23;100190.89;;;12.54;53.65
46682;BME280;34101;53.430;-2.224;2023-04-01T08:40:57;100193.36;;;12.64;53.30
46682;BME280;34101;53.430;-2.224;2023-04-01T08:43:40;100196.95;;;12.67;53.00
46682;BME280;34101;53.430;-2.224;2023-04-01T08:46:25;100200.65;;;12.64;53.06
46682;BME280;34101;53.430;-2.224;2023-04-01T08:49:07;100201.46;;;12.98;52.36
46682;BME280;34101;53.430;-2.224;2023-04-01T08:51:53;100205.15;;;13.83;49.91
46682;BME280;34101;53.430;-2.224;2023-04-01T08:54:46;100206.27;;;14.31;48.17
46682;BME280;34101;53.430;-2.224;2023-04-01T08:57:20;100210.56;;;14.71;47.78
46682;BME280;34101;53.430;-2.224;2023-04-01T08:59:59;100206.94;;;15.67;44.88
46682;BME280;34101;53.430;-2.224;2023-04-01T09:02:50;100210.36;;;16.64;43.65
46682;BME280;34101;53.430;-2.224;2023-04-01T09:05:36;100213.48;;;17.64;41.22
46682;BME280;34101;53.430;-2.224;2023-04-01T09:08:15;100218.41;;;18.40;39.18
46682;BME280;34101;53.430;-2.224;2023-04-01T09:11:12;100220.06;;;18.84;36.99
46682;BME280;34101;53.430;-2.224;2023-04-01T09:14:01;100225.56;;;18.27;38.25
46682;BME280;34101;53.430;-2.224;2023-04-01T09:16:44;100231.05;;;17.68;38.19
46682;BME280;34101;53.430;-2.224;2023-04-01T09:19:25;100237.71;;;17.56;39.21
46682;BME280;34101;53.430;-2.224;2023-04-01T09:22:09;100239.49;;;17.56;38.74
46682;BME280;34101;53.430;-2.224;2023-04-01T09:24:56;100243.60;;;17.06;39.46
46682;BME280;34101;53.430;-2.224;2023-04-01T09:27:28;100243.97;;;16.33;39.78
46682;BME280;34101;53.430;-2.224;2023-04-01T09:30:33;100245.39;;;15.85;41.24
46682;BME280;34101;53.430;-2.224;2023-04-01T09:33:40;100244.32;;;16.41;40.25
46682;BME280;34101;53.430;-2.224;2023-04-01T09:36:17;100246.63;;;16.28;40.57
46682;BME280;34101;53.430;-2.224;2023-04-01T09:38:56;100246.96;;;16.14;41.30
46682;BME280;34101;53.430;-2.224;2023-04-01T09:41:30;100248.84;;;15.71;41.10
46682;BME280;34101;53.430;-2.224;2023-04-01T09:44:02;100255.56;;;15.38;42.81
46682;BME280;34101;53.430;-2.224;2023-04-01T09:46:40;100254.08;;;15.15;42.63
46682;BME280;34101;53.430;-2.224;2023-04-01T09:49:38;100257.22;;;14.96;43.47
46682;BME280;34101;53.430;-2.224;2023-04-01T09:52:17;100259.83;;;15.33;43.84
46682;BME280;34101;53.430;-2.224;2023-04-01T09:54:56;100259.85;;;16.55;41.77
46682;BME280;34101;53.430;-2.224;2023-04-01T09:58:02;100261.59;;;17.14;38.91
46682;BME280;34101;53.430;-2.224;2023-04-01T10:03:20;100272.28;;;16.54;38.75
46682;BME280;34101;53.430;-2.224;2023-04-01T10:06:27;100277.92;;;16.19;40.14
46682;BME280;34101;53.430;-2.224;2023-04-01T10:09:19;100279.33;;;15.77;41.31
46682;BME280;34101;53.430;-2.224;2023-04-01T10:12:15;100290.65;;;15.42;42.02
46682;BME280;34101;53.430;-2.224;2023-04-01T10:15:11;100298.97;;;15.06;42.22
46682;BME280;34101;53.430;-2.224;2023-04-01T10:18:09;100304.26;;;14.52;43.40
46682;BME280;34101;53.430;-2.224;2023-04-01T10:21:16;100311.64;;;14.44;44.04
46682;BME280;34101;53.430;-2.224;2023-04-01T10:24:05;100320.28;;;14.51;44.55
46682;BME280;34101;53.430;-2.224;2023-04-01T10:26:57;100320.02;;;14.52;43.94
46682;BME280;34101;53.430;-2.224;2023-04-01T10:29:46;100319.06;;;15.41;43.53
46682;BME280;34101;53.430;-2.224;2023-04-01T10:32:45;100322.00;;;16.26;40.64
46682;BME280;34101;53.430;-2.224;2023-04-01T10:35:44;100330.06;;;16.15;40.32
46682;BME280;34101;53.430;-2.224;2023-04-01T10:38:54;100340.33;;;15.89;41.37
46682;BME280;34101;53.430;-2.224;2023-04-01T10:42:16;100340.09;;;15.79;41.31
46682;BME280;34101;53.430;-2.224;2023-04-01T10:45:09;100347.95;;;15.78;41.81
46682;BME280;34101;53.430;-2.224;2023-04-01T10:48:28;100352.40;;;15.53;42.06
46682;BME280;34101;53.430;-2.224;2023-04-01T10:51:16;100360.41;;;15.21;42.49
46682;BME280;34101;53.430;-2.224;2023-04-01T10:54:02;100362.70;;;15.10;42.74
46682;BME280;34101;53.430;-2.224;2023-04-01T10:56:40;100370.13;;;14.89;43.29
46682;BME280;34101;53.430;-2.224;2023-04-01T11:01:22;100372.43;;;14.83;43.36
46682;BME280;34101;53.430;-2.224;2023-04-01T11:04:18;100379.11;;;14.48;43.51
46682;BME280;34101;53.430;-2.224;2023-04-01T11:07:18;100380.46;;;14.67;44.10
46682;BME280;34101;53.430;-2.224;2023-04-01T11:10:39;100383.12;;;14.91;43.74
46682;BME280;34101;53.430;-2.224;2023-04-01T11:14:35;100384.94;;;14.94;43.47
46682;BME280;34101;53.430;-2.224;2023-04-01T11:17:53;100387.93;;;14.52;44.38
46682;BME280;34101;53.430;-2.224;2023-04-01T11:22:55;100396.63;;;14.47;45.20
46682;BME280;34101;53.430;-2.224;2023-04-01T11:25:41;100400.62;;;14.38;45.24
46682;BME280;34101;53.430;-2.224;2023-04-01T11:28:24;100404.29;;;14.38;45.58
46682;BME280;34101;53.430;-2.224;2023-04-01T11:31:03;100406.96;;;14.43;45.47
46682;BME280;34101;53.430;-2.224;2023-04-01T11:33:36;100407.64;;;14.36;44.65
46682;BME280;34101;53.430;-2.224;2023-04-01T11:36:11;100412.07;;;14.29;45.32
46682;BME280;34101;53.430;-2.224;2023-04-01T11:38:56;100416.32;;;14.33;45.04
46682;BME280;34101;53.430;-2.224;2023-04-01T11:41:35;100418.21;;;14.30;45.66
46682;BME280;34101;53.430;-2.224;2023-04-01T11:44:16;100428.79;;;14.25;44.96
46682;BME280;34101;53.430;-2.224;2023-04-01T11:46:56;100433.62;;;13.91;45.43
46682;BME280;34101;53.430;-2.224;2023-04-01T11:49:41;100434.34;;;14.08;45.46
46682;BME280;34101;53.430;-2.224;2023-04-01T11:52:21;100443.13;;;14.13;45.63
46682;BME280;34101;53.430;-2.224;2023-04-01T11:55:03;100448.09;;;14.07;44.79
46682;BME280;34101;53.430;-2.224;2023-04-01T11:57:48;100452.51;;;13.91;45.60
46682;BME280;34101;53.430;-2.224;2023-04-01T12:01:00;100459.26;;;13.81;45.99
46682;BME280;34101;53.430;-2.224;2023-04-01T12:03:54;100465.86;;;13.73;46.23
46682;BME280;34101;53.430;-2.224;2023-04-01T12:06:32;100474.37;;;13.62;46.55
46682;BME280;34101;53.430;-2.224;2023-04-01T12:09:09;100479.16;;;13.51;46.72
46682;BME280;34101;53.430;-2.224;2023-04-01T12:11:44;100482.72;;;13.30;46.92
46682;BME280;34101;53.430;-2.224;2023-04-01T12:14:19;100488.67;;;13.35;46.87
46682;BME280;34101;53.430;-2.224;2023-04-01T12:16:57;100492.89;;;13.18;47.19
46682;BME280;34101;53.430;-2.224;2023-04-01T12:19:32;100498.68;;;13.06;47.54
46682;BME280;34101;53.430;-2.224;2023-04-01T12:22:19;100499.79;;;13.04;48.17
46682;BME280;34101;53.430;-2.224;2023-04-01T12:24:58;100505.32;;;13.02;48.02
46682;BME280;34101;53.430;-2.224;2023-04-01T12:27:53;100506.53;;;12.86;48.36
46682;BME280;34101;53.430;-2.224;2023-04-01T12:30:33;100511.60;;;12.99;48.50
46682;BME280;34101;53.430;-2.224;2023-04-01T12:35:29;100520.39;;;13.07;48.22
46682;BME280;34101;53.430;-2.224;2023-04-01T12:38:13;100525.19;;;13.16;48.27
46682;BME280;34101;53.430;-2.224;2023-04-01T12:40:51;100523.34;;;13.33;47.74
46682;BME280;34101;53.430;-2.224;2023-04-01T12:44:42;100527.35;;;13.50;47.70
46682;BME280;34101;53.430;-2.224;2023-04-01T12:47:29;100527.79;;;13.52;47.54
46682;BME280;34101;53.430;-2.224;2023-04-01T12:50:43;100531.34;;;13.49;46.81
46682;BME280;34101;53.430;-2.224;2023-04-01T12:53:34;100531.65;;;13.40;47.62
46682;BME280;34101;53.430;-2.224;2023-04-01T12:56:07;100535.29;;;13.35;47.11
46682;BME280;34101;53.430;-2.224;2023-04-01T12:58:56;100539.42;;;13.37;47.97
46682;BME280;34101;53.430;-2.224;2023-04-01T13:01:40;100540.26;;;13.44;47.21
46682;BME280;34101;53.430;-2.224;2023-04-01T13:06:26;100547.75;;;13.50;47.53
46682;BME280;34101;53.430;-2.224;2023-04-01T13:09:03;100550.34;;;13.46;47.06
46682;BME280;34101;53.430;-2.224;2023-04-01T13:11:44;100553.92;;;13.45;47.30
46682;BME280;34101;53.430;-2.224;2023-04-01T13:14:33;100559.45;;;13.44;47.69
46682;BME280;34101;53.430;-2.224;2023-04-01T13:17:10;100561.26;;;13.40;47.29
46682;BME280;34101;53.430;-2.224;2023-04-01T13:19:45;100567.97;;;13.19;47.64
46682;BME280;34101;53.430;-2.224;2023-04-01T13:22:20;100571.92;;;13.11;47.70
46682;BME280;34101;53.430;-2.224;2023-04-01T13:24:55;100575.73;;;13.18;48.48
46682;BME280;34101;53.430;-2.224;2023-04-01T13:27:29;100578.14;;;13.25;48.32
46682;BME280;34101;53.430;-2.224;2023-04-01T13:30:07;100579.53;;;13.23;47.93
46682;BME280;34101;53.430;-2.224;2023-04-01T13:32:49;100580.75;;;13.32;48.36
46682;BME280;34101;53.430;-2.224;2023-04-01T13:35:25;100583.06;;;13.42;47.75
46682;BME280;34101;53.430;-2.224;2023-04-01T13:38:04;100588.48;;;13.54;47.71
46682;BME280;34101;53.430;-2.224;2023-04-01T13:40:42;100591.50;;;13.69;47.29
46682;BME280;34101;53.430;-2.224;2023-04-01T13:43:17;100596.07;;;13.79;47.30
46682;BME280;34101;53.430;-2.224;2023-04-01T13:46:05;100601.92;;;13.92;46.93
46682;BME280;34101;53.430;-2.224;2023-04-01T13:48:50;100605.55;;;13.92;47.10